createdAt,value
2018-01-12T00:01:00.711Z,81.60
2018-01-12T00:03:28.268Z,81.50
2018-01-12T00:05:55.838Z,81.50
2018-01-12T00:08:23.444Z,81.40
2018-01-12T00:10:51.026Z,81.30
2018-01-12T00:13:18.574Z,81.40
2018-01-12T00:15:46.126Z,81.30
2018-01-12T00:18:13.817Z,81.20
2018-01-12T00:20:41.396Z,81.20
2018-01-12T00:23:09.411Z,80.80
2018-01-12T00:25:37.148Z,81.00
2018-01-12T00:28:06.057Z,80.80
2018-01-12T00:30:33.610Z,80.80
2018-01-12T00:33:01.162Z,80.80
2018-01-12T00:35:28.731Z,80.70
2018-01-12T00:37:56.679Z,80.70
2018-01-12T00:40:24.254Z,80.70
2018-01-12T00:42:52.242Z,81.00
2018-01-12T00:45:20.193Z,81.20
2018-01-12T00:47:47.795Z,81.20
2018-01-12T00:50:15.343Z,81.10
2018-01-12T00:52:43.315Z,81.00
2018-01-12T00:55:11.799Z,81.10
2018-01-12T00:57:39.731Z,81.10
2018-01-12T01:00:07.310Z,81.10
2018-01-12T01:02:34.947Z,81.20
2018-01-12T01:05:02.558Z,81.20
2018-01-12T01:07:30.541Z,81.20
2018-01-12T01:09:58.498Z,81.30
2018-01-12T01:12:26.035Z,81.30
2018-01-12T01:14:53.583Z,81.20
2018-01-12T01:17:21.135Z,81.20
2018-01-12T01:19:48.761Z,81.10
2018-01-12T01:22:16.742Z,81.10
2018-01-12T01:24:44.707Z,81.10
2018-01-12T01:27:12.695Z,81.00
2018-01-12T01:29:40.631Z,81.00
2018-01-12T01:32:08.903Z,81.00
2018-01-12T01:34:36.598Z,81.00
2018-01-12T01:37:04.660Z,81.00
2018-01-12T01:39:32.280Z,81.00
2018-01-12T01:42:00.111Z,81.10
2018-01-12T01:44:28.087Z,81.30
2018-01-12T01:46:56.059Z,81.10
2018-01-12T01:49:25.002Z,81.00
2018-01-12T01:51:52.571Z,81.00
2018-01-12T01:54:20.148Z,80.70
2018-01-12T01:56:47.690Z,80.80
2018-01-12T01:59:15.263Z,80.90
2018-01-12T02:01:42.844Z,81.00
2018-01-12T02:04:10.424Z,80.90
2018-01-12T02:06:37.987Z,80.70
2018-01-12T02:09:05.549Z,80.80
2018-01-12T02:11:33.129Z,80.90
2018-01-12T02:14:00.784Z,81.00
2018-01-12T02:16:28.419Z,80.90
2018-01-12T02:18:56.019Z,80.90
2018-01-12T02:21:23.659Z,80.90
2018-01-12T02:23:51.216Z,80.90
2018-01-12T02:26:18.763Z,81.00
2018-01-12T02:28:46.298Z,81.00
2018-01-12T02:31:13.839Z,81.00
2018-01-12T02:33:41.387Z,81.00
2018-01-12T02:36:08.968Z,80.90
2018-01-12T02:38:36.598Z,80.70
2018-01-12T02:41:04.143Z,80.60
2018-01-12T02:43:31.728Z,80.70
2018-01-12T02:45:59.278Z,80.60
2018-01-12T02:48:26.811Z,80.60
2018-01-12T02:50:54.743Z,80.60
2018-01-12T02:53:22.289Z,80.60
2018-01-12T02:55:49.851Z,80.60
2018-01-12T02:58:17.451Z,80.70
2018-01-12T03:00:45.084Z,80.90
2018-01-12T03:03:12.798Z,81.00
2018-01-12T03:05:40.738Z,81.10
2018-01-12T03:08:08.294Z,81.10
2018-01-12T03:10:35.870Z,81.10
2018-01-12T03:13:03.519Z,81.10
2018-01-12T03:15:31.108Z,81.00
2018-01-12T03:17:58.724Z,81.00
2018-01-12T03:20:26.295Z,81.10
2018-01-12T03:22:54.695Z,81.10
2018-01-12T03:25:22.269Z,81.10
2018-01-12T03:27:49.826Z,81.20
2018-01-12T03:30:17.438Z,81.00
2018-01-12T03:32:45.433Z,80.90
2018-01-12T03:35:12.991Z,80.90
2018-01-12T03:37:40.921Z,80.90
2018-01-12T03:40:08.579Z,80.90
2018-01-12T03:42:36.169Z,81.10
2018-01-12T03:45:03.827Z,81.20
2018-01-12T03:47:31.363Z,81.20
2018-01-12T03:49:58.943Z,81.20
2018-01-12T03:52:26.521Z,81.20
2018-01-12T03:54:54.055Z,81.10
2018-01-12T03:57:21.648Z,80.80
2018-01-12T03:59:49.188Z,80.90
2018-01-12T04:02:16.760Z,80.80
2018-01-12T04:04:44.808Z,80.80
2018-01-12T04:07:12.339Z,80.70
2018-01-12T04:09:40.277Z,80.70
2018-01-12T04:12:07.955Z,80.70
2018-01-12T04:14:35.633Z,80.90
2018-01-12T04:17:03.222Z,80.90
2018-01-12T04:19:31.231Z,80.90
2018-01-12T04:21:58.763Z,80.90
2018-01-12T04:24:26.464Z,80.90
2018-01-12T04:26:54.035Z,80.80
2018-01-12T04:29:21.619Z,80.80
2018-01-12T04:31:49.201Z,80.70
2018-01-12T04:34:17.246Z,80.50
2018-01-12T04:36:44.843Z,80.50
2018-01-12T04:39:12.908Z,80.70
2018-01-12T04:41:40.574Z,80.60
2018-01-12T04:44:09.420Z,80.50
2018-01-12T04:46:36.967Z,80.50
2018-01-12T04:49:04.560Z,80.60
2018-01-12T04:51:32.208Z,80.40
2018-01-12T04:54:00.030Z,80.50
2018-01-12T04:56:27.670Z,80.60
2018-01-12T04:58:55.240Z,80.70
2018-01-12T05:01:22.858Z,80.90
2018-01-12T05:03:50.450Z,80.80
2018-01-12T05:06:18.123Z,80.90
2018-01-12T05:08:45.684Z,80.80
2018-01-12T05:11:13.269Z,80.70
2018-01-12T05:13:40.815Z,80.60
2018-01-12T05:16:08.356Z,80.80
2018-01-12T05:18:35.933Z,80.80
2018-01-12T05:21:03.517Z,80.80
2018-01-12T05:23:31.102Z,80.80
2018-01-12T05:25:59.711Z,80.70
2018-01-12T05:28:27.656Z,80.60
2018-01-12T05:30:55.352Z,80.60
2018-01-12T05:33:23.287Z,80.40
2018-01-12T05:35:50.836Z,80.40
2018-01-12T05:38:18.489Z,80.30
2018-01-12T05:40:46.058Z,80.40
2018-01-12T05:43:13.664Z,80.40
2018-01-12T05:45:41.236Z,80.40
2018-01-12T05:48:09.207Z,80.40
2018-01-12T05:50:36.751Z,80.40
2018-01-12T05:53:04.339Z,80.60
2018-01-12T05:55:32.004Z,80.70
2018-01-12T05:57:59.636Z,80.80
2018-01-12T06:00:27.228Z,80.90
2018-01-12T06:03:06.868Z,81.00
2018-01-12T06:05:46.287Z,80.90
2018-01-12T06:08:13.918Z,80.90
2018-01-12T06:10:41.495Z,80.90
2018-01-12T06:13:09.109Z,81.00
2018-01-12T06:15:36.677Z,81.10
2018-01-12T06:18:04.618Z,81.00
2018-01-12T06:20:32.221Z,81.00
2018-01-12T06:23:00.190Z,80.90
2018-01-12T06:25:28.223Z,80.90
2018-01-12T06:27:56.015Z,80.90
2018-01-12T06:30:23.648Z,80.80
2018-01-12T06:32:51.215Z,80.70
2018-01-12T06:35:18.915Z,80.80
2018-01-12T06:37:46.546Z,80.80
2018-01-12T06:40:14.115Z,80.70
2018-01-12T06:42:41.825Z,80.80
2018-01-12T06:45:09.762Z,81.00
2018-01-12T06:47:37.332Z,80.90
2018-01-12T06:50:05.030Z,81.00
2018-01-12T06:52:33.683Z,81.10
2018-01-12T06:55:01.269Z,81.10
2018-01-12T06:57:29.198Z,81.00
2018-01-12T06:59:56.780Z,81.00
2018-01-12T07:02:24.394Z,81.10
2018-01-12T07:04:52.375Z,81.20
2018-01-12T07:07:20.349Z,81.00
2018-01-12T07:09:48.323Z,81.10
2018-01-12T07:12:16.313Z,81.00
2018-01-12T07:14:43.861Z,81.00
2018-01-12T07:17:11.792Z,80.90
2018-01-12T07:19:39.539Z,80.90
2018-01-12T07:22:19.200Z,80.80
2018-01-12T07:24:47.250Z,80.70
2018-01-12T07:27:14.850Z,80.70
2018-01-12T07:29:42.486Z,80.50
2018-01-12T07:32:10.140Z,80.50
2018-01-12T07:34:37.756Z,80.60
2018-01-12T07:37:05.354Z,80.40
2018-01-12T07:39:32.886Z,80.40
2018-01-12T07:42:00.479Z,80.20
2018-01-12T07:44:28.059Z,80.10
2018-01-12T07:46:55.658Z,80.00
2018-01-12T07:49:23.246Z,79.90
2018-01-12T07:51:50.958Z,80.00
2018-01-12T07:54:18.546Z,80.10
2018-01-12T07:56:46.319Z,80.00
2018-01-12T07:59:13.859Z,80.10
2018-01-12T08:01:47.788Z,80.10
2018-01-12T08:04:15.333Z,80.00
2018-01-12T08:06:43.516Z,80.00
2018-01-12T08:09:11.120Z,80.00
2018-01-12T08:11:38.699Z,80.00
2018-01-12T08:14:06.640Z,80.00
2018-01-12T08:16:34.199Z,80.00
2018-01-12T08:19:01.859Z,80.10
2018-01-12T08:21:29.455Z,79.90
2018-01-12T08:23:57.060Z,79.80
2018-01-12T08:26:24.643Z,79.70
2018-01-12T08:28:52.303Z,79.70
2018-01-12T08:31:19.846Z,79.70
2018-01-12T08:33:47.430Z,79.60
2018-01-12T08:36:14.983Z,79.70
2018-01-12T08:38:42.578Z,79.70
2018-01-12T08:41:10.273Z,79.60
2018-01-12T08:43:38.179Z,79.70
2018-01-12T08:46:05.748Z,79.60
2018-01-12T08:48:33.292Z,79.40
2018-01-12T08:51:00.851Z,79.30
2018-01-12T08:53:28.790Z,79.00
2018-01-12T08:55:56.319Z,79.10
2018-01-12T08:58:23.863Z,79.10
2018-01-12T09:00:51.800Z,78.80
2018-01-12T09:03:19.372Z,78.80
2018-01-12T09:05:47.044Z,78.80
2018-01-12T09:08:14.627Z,78.90
2018-01-12T09:10:42.780Z,78.80
2018-01-12T09:13:22.104Z,78.70
2018-01-12T09:29:09.740Z,78.10
2018-01-12T09:31:39.542Z,77.70
2018-01-12T09:34:18.941Z,77.70
2018-01-12T09:36:46.543Z,77.60
2018-01-12T09:39:14.574Z,77.70
2018-01-12T09:41:42.116Z,77.70
2018-01-12T09:44:09.709Z,77.70
2018-01-12T09:46:37.258Z,77.80
2018-01-12T09:49:08.587Z,77.60
2018-01-12T09:51:36.165Z,77.40
2018-01-12T09:54:03.708Z,77.30
2018-01-12T09:56:31.748Z,76.80
2018-01-12T09:59:06.284Z,76.80
2018-01-12T10:01:40.649Z,77.00
2018-01-12T10:04:08.230Z,77.00
2018-01-12T10:06:36.303Z,77.10
2018-01-12T10:09:03.850Z,77.10
2018-01-12T10:11:31.439Z,77.00
2018-01-12T10:13:58.993Z,76.90
2018-01-12T10:16:26.641Z,76.70
2018-01-12T10:18:54.216Z,76.70
2018-01-12T10:21:33.780Z,76.70
2018-01-12T10:24:01.358Z,76.60
2018-01-12T10:26:28.965Z,76.30
2018-01-12T10:29:05.180Z,76.40
2018-01-12T10:31:51.327Z,76.40
2018-01-12T10:34:43.700Z,76.40
2018-01-12T10:37:11.277Z,76.30
2018-01-12T10:39:50.778Z,76.10
2018-01-12T10:42:19.768Z,75.90
2018-01-12T10:44:47.313Z,76.10
2018-01-12T10:47:29.835Z,76.10
2018-01-12T11:03:32.378Z,76.10
2018-01-12T11:05:59.942Z,76.20
2018-01-12T11:08:27.516Z,76.40
2018-01-12T11:10:55.175Z,76.30
2018-01-12T11:13:22.892Z,76.40
2018-01-12T11:15:50.476Z,75.90
2018-01-12T11:18:18.108Z,75.80
2018-01-12T11:20:45.716Z,76.00
2018-01-12T11:23:13.303Z,76.10
2018-01-12T11:25:40.903Z,75.90
2018-01-12T11:28:08.480Z,75.70
2018-01-12T11:30:36.426Z,75.80
2018-01-12T11:33:04.020Z,75.80
2018-01-12T11:35:31.972Z,75.70
2018-01-12T11:37:59.519Z,75.70
2018-01-12T11:40:27.203Z,75.60
2018-01-12T11:42:54.800Z,75.50
2018-01-12T11:45:22.769Z,75.40
2018-01-12T11:47:50.702Z,75.40
2018-01-12T11:50:18.391Z,75.40
2018-01-12T11:52:45.932Z,75.20
2018-01-12T11:55:13.475Z,75.00
2018-01-12T11:57:42.063Z,75.00
2018-01-12T12:00:09.598Z,75.20
2018-01-12T12:02:37.150Z,75.20
2018-01-12T12:05:05.120Z,75.20
2018-01-12T12:07:33.139Z,75.30
2018-01-12T12:10:00.730Z,75.30
2018-01-12T12:12:28.293Z,75.40
2018-01-12T12:14:55.934Z,75.40
2018-01-12T12:17:23.508Z,75.50
2018-01-12T12:19:51.107Z,75.50
2018-01-12T12:22:18.645Z,75.50
2018-01-12T12:24:46.254Z,75.50
2018-01-12T12:27:14.196Z,75.40
2018-01-12T12:29:42.404Z,75.40
2018-01-12T12:32:10.533Z,75.40
2018-01-12T12:34:38.288Z,75.40
2018-01-12T12:37:05.889Z,75.50
2018-01-12T12:39:33.481Z,75.60
2018-01-12T12:42:01.600Z,75.50
2018-01-12T12:44:29.276Z,75.50
2018-01-12T12:46:56.951Z,75.40
2018-01-12T12:49:24.997Z,75.20
2018-01-12T12:51:52.633Z,75.20
2018-01-12T12:54:21.240Z,75.10
2018-01-12T12:56:50.404Z,75.10
2018-01-12T12:59:18.121Z,75.00
2018-01-12T13:01:45.831Z,75.00
2018-01-12T13:04:13.474Z,74.90
2018-01-12T13:06:41.219Z,74.80
2018-01-12T13:09:08.831Z,74.80
2018-01-12T13:11:36.868Z,75.00
2018-01-12T13:14:04.419Z,75.00
2018-01-12T13:16:32.294Z,74.90
2018-01-12T13:18:59.883Z,74.80
2018-01-12T13:21:27.547Z,74.60
2018-01-12T13:23:56.246Z,74.60
2018-01-12T13:26:23.985Z,74.50
2018-01-12T13:28:51.543Z,74.30
2018-01-12T13:31:19.095Z,74.20
2018-01-12T13:33:46.759Z,74.10
2018-01-12T13:36:14.771Z,74.10
2018-01-12T13:38:42.357Z,74.10
2018-01-12T13:41:09.983Z,74.10
2018-01-12T13:43:38.207Z,74.20
2018-01-12T13:46:05.746Z,74.30
2018-01-12T13:48:33.318Z,74.40
2018-01-12T13:51:01.000Z,74.40
2018-01-12T13:53:28.682Z,74.30
2018-01-12T13:55:56.675Z,74.10
2018-01-12T13:58:24.308Z,74.10
2018-01-12T14:00:51.903Z,74.10
2018-01-12T14:03:19.516Z,74.10
2018-01-12T14:05:47.255Z,74.20
2018-01-12T14:08:14.862Z,74.30
2018-01-12T14:10:42.612Z,74.50
2018-01-12T14:13:10.216Z,74.60
2018-01-12T14:15:37.912Z,74.60
2018-01-12T14:18:05.494Z,74.70
2018-01-12T14:20:33.153Z,74.60
2018-01-12T14:23:00.736Z,74.60
2018-01-12T14:25:28.329Z,74.70
2018-01-12T14:27:56.164Z,74.70
2018-01-12T14:30:23.929Z,74.70
2018-01-12T14:32:51.502Z,74.80
2018-01-12T14:35:19.379Z,74.90
2018-01-12T14:37:46.967Z,74.90
2018-01-12T14:40:14.517Z,74.90
2018-01-12T14:42:42.260Z,75.10
2018-01-12T14:45:09.952Z,75.20
2018-01-12T14:47:38.262Z,75.20
2018-01-12T14:50:06.241Z,75.10
2018-01-12T14:52:34.186Z,75.10
2018-01-12T14:55:01.786Z,75.10
2018-01-12T14:57:29.372Z,75.10
2018-01-12T14:59:57.012Z,75.20
2018-01-12T15:02:25.019Z,75.50
2018-01-12T15:04:52.687Z,75.50
2018-01-12T15:07:20.296Z,75.60
2018-01-12T15:09:48.493Z,75.50
2018-01-12T15:12:16.495Z,75.50
2018-01-12T15:14:44.485Z,75.50
2018-01-12T15:17:12.035Z,75.10
2018-01-12T15:19:39.644Z,75.00
2018-01-12T15:22:07.301Z,74.90
2018-01-12T15:24:34.846Z,75.00
2018-01-12T15:27:02.565Z,75.00
2018-01-12T15:29:30.100Z,75.00
2018-01-12T15:31:57.809Z,74.90
2018-01-12T15:34:25.773Z,74.90
2018-01-12T15:36:53.922Z,74.90
2018-01-12T15:39:21.475Z,74.90
2018-01-12T15:41:49.088Z,74.90
2018-01-12T15:44:17.203Z,74.90
2018-01-12T15:46:44.756Z,74.90
2018-01-12T15:49:12.455Z,75.10
2018-01-12T15:51:40.054Z,75.20
2018-01-12T15:54:08.124Z,75.00
2018-01-12T15:56:35.859Z,75.00
2018-01-12T15:59:03.411Z,75.00
2018-01-12T16:01:30.951Z,75.00
2018-01-12T16:03:58.594Z,75.10
2018-01-12T16:06:26.662Z,75.40
2018-01-12T16:08:55.817Z,75.40
2018-01-12T16:11:23.404Z,75.70
2018-01-12T16:13:50.960Z,75.80
2018-01-12T16:16:18.554Z,75.70
2018-01-12T16:18:46.159Z,75.80
2018-01-12T16:21:13.783Z,75.80
2018-01-12T16:23:41.500Z,76.00
2018-01-12T16:26:09.271Z,76.10
2018-01-12T16:28:36.929Z,76.20
2018-01-12T16:31:04.556Z,76.10
2018-01-12T16:33:32.121Z,76.10
2018-01-12T16:36:00.180Z,76.20
2018-01-12T16:38:27.815Z,76.20
2018-01-12T16:40:55.502Z,76.20
2018-01-12T16:43:23.095Z,76.00
2018-01-12T16:45:51.086Z,76.30
2018-01-12T16:48:19.101Z,76.20
2018-01-12T16:50:46.639Z,76.20
2018-01-12T16:53:14.223Z,76.10
2018-01-12T16:55:41.826Z,76.10
2018-01-12T16:58:09.386Z,76.10
2018-01-12T17:00:37.221Z,76.30
2018-01-12T17:03:04.767Z,76.20
2018-01-12T17:05:32.390Z,76.30
2018-01-12T17:07:59.980Z,76.30
2018-01-12T17:10:27.916Z,76.50
2018-01-12T17:12:55.694Z,76.50
2018-01-12T17:15:23.368Z,76.50
2018-01-12T17:17:51.430Z,76.50
2018-01-12T17:20:19.002Z,76.50
2018-01-12T17:22:46.639Z,76.50
2018-01-12T17:25:14.214Z,76.50
2018-01-12T17:27:42.539Z,76.50
2018-01-12T17:30:10.525Z,76.30
2018-01-12T17:32:38.138Z,76.30
2018-01-12T17:35:05.890Z,76.50
2018-01-12T17:37:33.454Z,76.30
2018-01-12T17:40:01.163Z,76.30
2018-01-12T17:42:28.767Z,76.30
2018-01-12T17:44:56.404Z,76.10
2018-01-12T17:47:24.181Z,76.10
2018-01-12T17:49:52.093Z,75.90
2018-01-12T17:52:19.679Z,75.90
2018-01-12T17:54:47.388Z,75.90
2018-01-12T17:57:15.436Z,76.00
2018-01-12T17:59:43.025Z,76.00
2018-01-12T18:02:10.987Z,76.10
2018-01-12T18:04:38.939Z,76.30
2018-01-12T18:07:06.546Z,76.10
2018-01-12T18:09:34.137Z,76.30
2018-01-12T18:12:01.695Z,76.30
2018-01-12T18:14:29.278Z,76.30
2018-01-12T18:16:56.819Z,76.30
2018-01-12T18:19:24.433Z,76.30
2018-01-12T18:21:52.149Z,76.50
2018-01-12T18:24:19.739Z,76.50
2018-01-12T18:26:47.832Z,76.60
2018-01-12T18:29:15.517Z,76.60
2018-01-12T18:31:43.183Z,76.60
2018-01-12T18:34:11.202Z,76.60
2018-01-12T18:36:38.762Z,76.60
2018-01-12T18:39:06.356Z,76.50
2018-01-12T18:41:33.936Z,76.50
2018-01-12T18:44:02.027Z,76.60
2018-01-12T18:46:30.067Z,76.50
2018-01-12T18:48:57.646Z,76.50
2018-01-12T18:51:25.248Z,76.50
2018-01-12T18:53:53.218Z,76.50
2018-01-12T18:56:21.237Z,76.60
2018-01-12T18:58:49.356Z,76.60
2018-01-12T19:01:16.906Z,76.70
2018-01-12T19:03:44.583Z,76.60
2018-01-12T19:06:12.139Z,76.60
2018-01-12T19:08:39.731Z,76.60
2018-01-12T19:11:07.737Z,76.60
2018-01-12T19:13:35.360Z,76.60
2018-01-12T19:16:03.308Z,76.60
2018-01-12T19:18:30.900Z,76.50
2018-01-12T19:20:58.897Z,76.60
2018-01-12T19:23:26.484Z,76.60
2018-01-12T19:25:54.063Z,76.60
2018-01-12T19:28:21.667Z,76.50
2018-01-12T19:30:49.626Z,76.60
2018-01-12T19:33:17.194Z,76.60
2018-01-12T19:35:44.851Z,76.60
2018-01-12T19:38:12.532Z,76.70
2018-01-12T19:40:40.975Z,76.70
2018-01-12T19:43:08.556Z,76.70
2018-01-12T19:45:36.299Z,76.70
2018-01-12T19:48:03.940Z,76.60
2018-01-12T19:50:31.522Z,76.70
2018-01-12T19:52:59.088Z,76.70
2018-01-12T19:55:26.702Z,76.60
2018-01-12T19:57:54.293Z,76.50
2018-01-12T20:00:22.261Z,76.50
2018-01-12T20:02:50.521Z,76.50
2018-01-12T20:05:18.134Z,76.50
2018-01-12T20:07:45.666Z,76.30
2018-01-12T20:10:13.648Z,76.00
2018-01-12T20:12:42.161Z,75.90
2018-01-12T20:15:09.775Z,75.90
2018-01-12T20:17:37.323Z,75.80
2018-01-12T20:20:04.885Z,75.90
2018-01-12T20:22:32.451Z,75.70
2018-01-12T20:25:00.082Z,75.80
2018-01-12T20:27:27.675Z,75.70
2018-01-12T20:29:55.340Z,76.70
2018-01-12T20:32:22.930Z,76.00
2018-01-12T20:34:50.595Z,75.90
2018-01-12T20:37:18.172Z,75.90
2018-01-12T20:39:46.162Z,75.70
2018-01-12T20:42:13.768Z,75.70
2018-01-12T20:44:41.361Z,75.70
2018-01-12T20:47:09.033Z,75.60
2018-01-12T20:49:36.602Z,75.60
2018-01-12T20:52:04.684Z,75.50
2018-01-12T20:54:32.759Z,75.50
2018-01-12T20:57:00.814Z,75.40
2018-01-12T20:59:28.362Z,75.40
2018-01-12T21:01:55.971Z,75.30
2018-01-12T21:04:23.991Z,75.20
2018-01-12T21:06:51.576Z,75.10
2018-01-12T21:09:19.283Z,75.10
2018-01-12T21:11:46.823Z,75.00
2018-01-12T21:14:14.439Z,74.70
2018-01-12T21:16:42.127Z,74.60
2018-01-12T21:19:09.683Z,74.50
2018-01-12T21:21:37.350Z,74.40
2018-01-12T21:24:04.913Z,74.60
2018-01-12T21:26:32.458Z,74.70
2018-01-12T21:29:00.150Z,74.60
2018-01-12T21:31:27.720Z,74.40
2018-01-12T21:33:55.316Z,74.10
2018-01-12T21:36:23.299Z,73.90
2018-01-12T21:38:51.266Z,74.10
2018-01-12T21:41:19.202Z,74.00
2018-01-12T21:43:46.842Z,74.00
2018-01-12T21:46:14.432Z,74.00
2018-01-12T21:48:42.409Z,73.80
2018-01-12T21:51:10.075Z,73.80
2018-01-12T21:53:37.676Z,73.60
2018-01-12T21:56:05.802Z,73.40
2018-01-12T21:58:33.456Z,73.40
2018-01-12T22:01:01.049Z,73.40
2018-01-12T22:03:28.692Z,73.10
2018-01-12T22:05:56.304Z,73.00
2018-01-12T22:08:23.880Z,73.10
2018-01-12T22:10:51.837Z,73.30
2018-01-12T22:13:19.414Z,73.30
2018-01-12T22:15:47.459Z,73.50
2018-01-12T22:18:15.096Z,73.50
2018-01-12T22:20:42.716Z,73.60
2018-01-12T22:23:10.388Z,73.70
2018-01-12T22:25:38.864Z,73.60
2018-01-12T22:28:06.433Z,73.60
2018-01-12T22:30:33.970Z,73.60
2018-01-12T22:33:01.579Z,73.70
2018-01-12T22:35:29.648Z,73.60
2018-01-12T22:37:57.624Z,73.20
2018-01-12T22:40:25.632Z,73.20
2018-01-12T22:42:53.189Z,73.30
2018-01-12T22:45:21.009Z,73.20
2018-01-12T22:47:48.559Z,73.30
2018-01-12T22:50:16.140Z,73.40
2018-01-12T22:52:43.803Z,73.50
2018-01-12T22:55:11.345Z,73.60
2018-01-12T22:57:39.103Z,73.60
2018-01-12T23:00:06.684Z,73.60
2018-01-12T23:02:34.276Z,73.70
2018-01-12T23:05:02.260Z,73.60
2018-01-12T23:07:30.347Z,73.50
2018-01-12T23:09:57.983Z,73.50
2018-01-12T23:12:25.677Z,73.50
2018-01-12T23:14:53.275Z,73.50
2018-01-12T23:17:20.846Z,73.40
2018-01-12T23:19:48.442Z,73.30
2018-01-12T23:22:16.528Z,73.50
2018-01-12T23:24:44.085Z,73.40
2018-01-12T23:27:11.646Z,73.20
2018-01-12T23:29:39.319Z,73.20
2018-01-12T23:32:06.903Z,73.20
2018-01-12T23:34:34.903Z,73.30
2018-01-12T23:37:02.456Z,73.30
2018-01-12T23:39:30.058Z,73.30
2018-01-12T23:41:57.612Z,73.30
2018-01-12T23:44:25.263Z,73.30
2018-01-12T23:46:52.816Z,73.30
2018-01-12T23:49:20.406Z,73.30
2018-01-12T23:51:47.951Z,73.30
2018-01-12T23:54:15.494Z,73.30
2018-01-12T23:56:43.543Z,73.40
2018-01-12T23:59:11.205Z,73.40
